Time;durP1;ratioP1;P1;durP2;ratioP2;P2;SDS_P1;SDS_P2;PMS_P1;PMS_P2;Temp;Humidity;BMP_temperature;BMP_pressure;BME280_temperature;BME280_humidity;BME280_pressure;Samples;Min_cycle;Max_cycle;Signal;HPM_P1;HPM_P2
2021/03/25 00:02:24;;;;;;;10.77;8.97;;;1.00;99.90;-0.30;97315.00;;;;5085214;28;20426;-68
2021/03/25 00:05:14;;;;;;;9.67;7.93;;;1.00;99.90;-0.20;97314.00;;;;5084612;28;20590;-67
2021/03/25 00:08:07;;;;;;;12.27;8.00;;;1.00;99.90;-0.10;97315.00;;;;5085377;28;20522;-67
2021/03/25 00:10:55;;;;;;;13.50;9.37;;;1.00;99.90;-0.40;97307.00;;;;5084500;28;20496;-68
2021/03/25 00:13:43;;;;;;;21.00;9.40;;;1.00;99.90;-0.30;97304.00;;;;5084334;28;20936;-68
2021/03/25 00:16:31;;;;;;;19.03;9.80;;;1.00;99.90;-0.30;97308.00;;;;5085261;28;20440;-67
2021/03/25 00:19:19;;;;;;;13.10;8.83;;;1.00;99.90;-0.40;97312.00;;;;5098932;28;20542;-68
2021/03/25 00:22:08;;;;;;;13.67;9.20;;;1.00;99.90;-0.40;97304.00;;;;5093897;28;20435;-66
2021/03/25 00:24:57;;;;;;;13.27;8.17;;;0.90;99.90;-0.40;97300.00;;;;5096404;28;20956;-68
2021/03/25 00:27:45;;;;;;;13.37;8.43;;;0.90;99.90;-0.60;97299.00;;;;5086116;28;20453;-69
2021/03/25 00:30:33;;;;;;;12.77;9.27;;;0.80;99.90;-0.60;97295.00;;;;5101129;28;20460;-68
2021/03/25 00:33:22;;;;;;;14.53;9.23;;;0.80;99.90;-0.70;97289.00;;;;5098887;28;20428;-69
2021/03/25 00:36:10;;;;;;;12.37;8.43;;;0.70;99.90;-0.90;97292.00;;;;5085450;28;20474;-68
2021/03/25 00:38:58;;;;;;;15.90;12.07;;;0.60;99.90;-1.20;97283.00;;;;5084369;28;20486;-68
2021/03/25 00:41:47;;;;;;;14.10;9.57;;;0.50;99.90;-1.30;97292.00;;;;5101580;28;20798;-68
2021/03/25 00:44:35;;;;;;;14.73;8.83;;;0.30;99.90;-1.40;97272.00;;;;5101802;28;20433;-68
2021/03/25 00:47:23;;;;;;;12.80;9.57;;;0.20;99.90;-1.40;97275.00;;;;5097980;28;20464;-68
2021/03/25 00:50:20;;;;;;;13.63;9.23;;;0.10;99.90;-1.50;97269.00;;;;5101433;28;20525;-68
2021/03/25 00:53:11;;;;;;;18.67;10.13;;;0.00;99.90;-1.40;97271.00;;;;5091821;28;20436;-68
2021/03/25 00:56:00;;;;;;;14.40;9.57;;;0.00;99.90;-1.50;97266.00;;;;5097453;28;20444;-68
2021/03/25 00:58:49;;;;;;;16.07;10.37;;;-0.10;99.90;-1.40;97259.00;;;;5101043;28;20448;-68
2021/03/25 01:01:37;;;;;;;14.97;9.33;;;-0.10;99.90;-1.60;97265.00;;;;5086307;28;20429;-65
2021/03/25 01:04:25;;;;;;;13.87;9.70;;;-0.10;99.90;-1.70;97273.00;;;;5098502;28;20441;-68
2021/03/25 01:07:17;;;;;;;13.83;9.90;;;-0.20;99.90;-1.80;97271.00;;;;5096306;28;20468;-68
2021/03/25 01:10:16;;;;;;;13.67;9.20;;;-0.30;99.90;-1.70;97271.00;;;;5097595;28;21089;-68
2021/03/25 01:13:08;;;;;;;13.60;9.53;;;-0.30;99.90;-1.80;97263.00;;;;5092542;28;20440;-68
2021/03/25 01:15:57;;;;;;;14.17;9.83;;;-0.30;99.90;-1.70;97284.00;;;;5096043;28;20510;-67
2021/03/25 01:18:45;;;;;;;16.40;10.60;;;-0.40;99.90;-1.80;97265.00;;;;5089002;28;20825;-68
2021/03/25 01:21:33;;;;;;;16.87;10.30;;;-0.40;99.90;-1.90;97272.00;;;;5095136;28;20441;-68
2021/03/25 01:24:21;;;;;;;14.87;10.60;;;-0.40;99.90;-1.80;97268.00;;;;5083554;28;20422;-66
2021/03/25 01:27:09;;;;;;;16.23;10.50;;;-0.40;99.90;-2.00;97256.00;;;;5084062;28;20433;-67
2021/03/25 01:30:01;;;;;;;16.83;11.47;;;-0.50;99.90;-1.80;97274.00;;;;5083832;28;20433;-68
2021/03/25 01:32:50;;;;;;;17.23;10.60;;;-0.40;99.90;-1.70;97269.00;;;;5084317;28;20456;-67
2021/03/25 01:35:41;;;;;;;16.27;10.90;;;-0.50;99.90;-1.80;97267.00;;;;5082888;28;20452;-68
2021/03/25 01:38:29;;;;;;;17.77;10.97;;;-0.40;99.90;-1.80;97261.00;;;;5091849;28;20448;-67
2021/03/25 01:41:17;;;;;;;16.57;10.57;;;-0.40;99.90;-2.10;97265.00;;;;5101590;28;20423;-68
2021/03/25 01:44:06;;;;;;;14.30;10.40;;;-0.50;99.90;-2.10;97255.00;;;;5097582;28;20426;-68
2021/03/25 01:46:54;;;;;;;18.07;12.03;;;-0.60;99.90;-2.10;97259.00;;;;5083733;28;20973;-68
2021/03/25 01:49:43;;;;;;;17.10;11.67;;;-0.60;99.90;-1.90;97247.00;;;;5093962;28;20974;-67
2021/03/25 01:52:52;;;;;;;18.43;10.90;;;-0.60;99.90;-1.90;97264.00;;;;5083243;28;20426;-68
2021/03/25 01:55:49;;;;;;;25.67;10.13;;;-0.60;99.90;-1.90;97254.00;;;;5084435;28;20433;-68
2021/03/25 01:59:40;;;;;;;14.77;10.60;;;-0.60;99.90;-1.80;97261.00;;;;5088623;28;20453;-67
2021/03/25 02:02:36;;;;;;;16.97;9.93;;;-0.50;99.90;-2.00;97255.00;;;;5087060;28;20445;-68
2021/03/25 02:05:34;;;;;;;19.97;12.37;;;-0.50;99.90;-2.00;97246.00;;;;5104608;28;20427;-68
2021/03/25 02:08:37;;;;;;;23.47;12.10;;;-0.50;99.90;-1.90;97255.00;;;;5098874;28;20473;-68
2021/03/25 02:11:40;;;;;;;22.07;13.50;;;-0.60;99.90;-2.00;97259.00;;;;5087415;28;20468;-67
2021/03/25 02:14:35;;;;;;;22.63;12.70;;;-0.60;99.90;-2.20;97259.00;;;;5104328;28;20436;-68
2021/03/25 02:17:30;;;;;;;18.70;12.40;;;-0.60;99.90;-2.40;97254.00;;;;5098558;28;20467;-67
2021/03/25 02:21:35;;;;;;;16.97;10.77;;;-0.70;99.90;-2.30;97255.00;;;;5086598;28;20426;-67
2021/03/25 02:24:40;;;;;;;18.40;11.17;;;-0.80;99.90;-2.20;97249.00;;;;5072166;28;20882;-67
2021/03/25 02:27:48;;;;;;;19.07;12.23;;;-0.90;99.90;-2.20;97256.00;;;;5086884;28;20449;-67
2021/03/25 02:30:48;;;;;;;18.60;12.90;;;-0.80;99.90;-2.10;97247.00;;;;5085477;28;20469;-67
2021/03/25 02:33:37;;;;;;;17.10;11.60;;;-0.80;99.90;-2.20;97244.00;;;;5087396;28;20430;-67
2021/03/25 02:36:41;;;;;;;21.17;12.73;;;-0.80;99.90;-2.20;97256.00;;;;5087710;28;20430;-67
2021/03/25 02:39:37;;;;;;;13.90;9.70;;;-0.90;99.90;-2.30;97242.00;;;;5100820;28;20970;-68
2021/03/25 02:42:41;;;;;;;17.00;10.47;;;-0.80;99.90;-2.50;97246.00;;;;5100071;28;20438;-67
2021/03/25 02:45:32;;;;;;;22.60;14.40;;;-0.90;99.90;-2.50;97257.00;;;;5102240;28;20437;-67
2021/03/25 02:48:25;;;;;;;21.90;12.73;;;-1.00;99.90;-2.50;97254.00;;;;5090624;28;20456;-66
2021/03/25 02:51:19;;;;;;;23.47;12.30;;;-1.00;99.90;-2.40;97249.00;;;;5098681;28;21123;-67
2021/03/25 02:54:08;;;;;;;27.33;13.33;;;-1.00;99.90;-2.30;97247.00;;;;5091815;28;20441;-68
2021/03/25 02:56:59;;;;;;;23.97;13.00;;;-1.00;99.90;-2.20;97247.00;;;;5085727;28;20444;-66
2021/03/25 02:59:50;;;;;;;17.00;12.23;;;-0.90;99.90;-2.30;97241.00;;;;5089099;28;20429;-67
2021/03/25 03:02:40;;;;;;;18.77;10.93;;;-0.90;99.90;-2.30;97247.00;;;;5087179;28;20729;-68
2021/03/25 03:05:30;;;;;;;18.03;11.40;;;-1.00;99.90;-2.30;97254.00;;;;5085561;28;20520;-67
2021/03/25 03:08:23;;;;;;;19.10;10.67;;;-1.00;99.90;-2.30;97255.00;;;;5086246;28;20855;-67
2021/03/25 03:11:15;;;;;;;18.23;10.90;;;-1.00;99.90;-2.60;97266.00;;;;5086370;28;20473;-68
2021/03/25 03:14:07;;;;;;;19.27;11.90;;;-1.00;99.90;-2.70;97257.00;;;;5085692;28;21000;-67
2021/03/25 03:16:59;;;;;;;19.87;12.60;;;-1.10;99.90;-2.60;97249.00;;;;5083727;28;20825;-67
2021/03/25 03:20:04;;;;;;;21.07;12.90;;;-1.10;99.90;-2.80;97246.00;;;;5102349;28;20436;-68
2021/03/25 03:22:54;;;;;;;21.73;12.17;;;-1.20;99.90;-2.60;97258.00;;;;5098256;28;20440;-66
2021/03/25 03:25:42;;;;;;;21.50;13.50;;;-1.20;99.90;-2.50;97271.00;;;;5094203;28;20465;-68
2021/03/25 03:28:39;;;;;;;19.37;11.90;;;-1.20;99.90;-2.50;97256.00;;;;5086599;28;20449;-68
2021/03/25 03:31:32;;;;;;;26.80;15.30;;;-1.20;99.90;-2.40;97265.00;;;;5085124;28;20474;-66
2021/03/25 03:34:25;;;;;;;25.73;14.13;;;-1.10;99.90;-2.60;97257.00;;;;5102593;28;20429;-68
2021/03/25 03:37:21;;;;;;;18.97;12.10;;;-1.10;99.90;-2.70;97255.00;;;;5101068;28;20959;-67
2021/03/25 03:40:16;;;;;;;18.17;12.57;;;-1.20;99.90;-3.10;97240.00;;;;5089701;28;20437;-66
2021/03/25 03:43:15;;;;;;;23.40;13.93;;;-1.30;99.90;-3.10;97239.00;;;;5092401;28;20424;-66
2021/03/25 03:46:06;;;;;;;22.60;14.00;;;-1.40;99.90;-3.00;97242.00;;;;5096172;28;20445;-68
2021/03/25 03:49:01;;;;;;;27.37;13.97;;;-1.50;99.90;-3.00;97252.00;;;;5101364;28;20463;-68
2021/03/25 03:51:55;;;;;;;17.27;14.27;;;-1.60;99.90;-3.00;97240.00;;;;5084605;28;21013;-66
2021/03/25 03:54:48;;;;;;;22.67;12.00;;;-1.60;99.90;-3.00;97239.00;;;;5084764;28;20441;-66
2021/03/25 03:57:47;;;;;;;17.77;11.40;;;-1.50;99.90;-3.00;97242.00;;;;5088886;28;20463;-66
2021/03/25 04:00:42;;;;;;;18.30;12.87;;;-1.60;99.90;-2.90;97243.00;;;;5089800;28;20424;-67
2021/03/25 04:03:38;;;;;;;22.50;13.90;;;-1.50;99.90;-2.90;97236.00;;;;5084603;28;20457;-66
2021/03/25 04:06:33;;;;;;;19.63;12.67;;;-1.50;99.90;-3.00;97245.00;;;;5085804;28;20436;-68
2021/03/25 04:09:31;;;;;;;23.77;13.30;;;-1.50;99.90;-3.10;97249.00;;;;5084840;28;20429;-68
2021/03/25 04:12:25;;;;;;;23.63;13.47;;;-1.60;99.90;-3.00;97241.00;;;;5085542;28;21003;-68
2021/03/25 04:15:19;;;;;;;24.23;13.17;;;-1.60;99.90;-3.00;97239.00;;;;5084820;28;20422;-66
2021/03/25 04:18:13;;;;;;;23.63;13.13;;;-1.60;99.90;-3.00;97235.00;;;;5085216;28;20461;-68
2021/03/25 04:21:08;;;;;;;23.10;14.23;;;-1.60;99.90;-2.90;97243.00;;;;5084246;28;20429;-66
2021/03/25 04:23:59;;;;;;;22.47;14.87;;;-1.60;99.90;-2.80;97244.00;;;;5085740;28;20826;-68
2021/03/25 04:26:52;;;;;;;24.43;15.00;;;-1.50;99.90;-3.00;97234.00;;;;5085790;28;20442;-65
2021/03/25 04:29:44;;;;;;;22.40;14.47;;;-1.50;99.90;-3.10;97240.00;;;;5098975;28;20512;-67
2021/03/25 04:32:33;;;;;;;23.47;13.80;;;-1.60;99.90;-3.10;97232.00;;;;5095589;28;20469;-67
2021/03/25 04:35:22;;;;;;;25.10;18.00;;;-1.60;99.90;-3.20;97236.00;;;;5092450;28;20806;-67
2021/03/25 04:38:12;;;;;;;28.83;16.93;;;-1.60;99.90;-3.20;97233.00;;;;5091930;28;20864;-67
2021/03/25 04:41:01;;;;;;;29.73;15.53;;;-1.70;99.90;-3.20;97230.00;;;;5098514;28;20433;-67
2021/03/25 04:44:00;;;;;;;26.70;14.13;;;-1.70;99.90;-3.10;97238.00;;;;5096260;28;20466;-66
2021/03/25 04:46:55;;;;;;;28.30;15.57;;;-1.70;99.90;-3.10;97237.00;;;;5085226;28;20514;-66
2021/03/25 04:49:49;;;;;;;21.87;14.10;;;-1.70;99.90;-3.30;97240.00;;;;5095132;28;20443;-66
2021/03/25 04:52:37;;;;;;;29.67;12.83;;;-1.70;99.90;-3.30;97235.00;;;;5086599;28;20457;-68
2021/03/25 04:55:25;;;;;;;29.10;15.17;;;-1.80;99.90;-3.40;97225.00;;;;5085579;28;20460;-68
2021/03/25 04:58:29;;;;;;;24.90;13.33;;;-1.80;99.90;-3.10;97227.00;;;;5089400;28;20464;-67
2021/03/25 05:01:20;;;;;;;27.43;16.60;;;-1.80;99.90;-3.10;97232.00;;;;5084360;28;20414;-68
2021/03/25 05:04:11;;;;;;;23.50;13.63;;;-1.80;99.90;-3.20;97227.00;;;;5094502;28;20432;-69
2021/03/25 05:07:02;;;;;;;23.53;14.13;;;-1.80;99.90;-3.10;97230.00;;;;5097777;28;20428;-66
2021/03/25 05:09:50;;;;;;;23.30;15.73;;;-1.70;99.90;-3.00;97224.00;;;;5087757;28;20432;-68
2021/03/25 05:12:38;;;;;;;21.77;15.30;;;-1.70;99.90;-3.10;97226.00;;;;5084155;28;20864;-68
2021/03/25 05:15:29;;;;;;;25.83;16.73;;;-1.70;99.90;-3.20;97223.00;;;;5084432;28;20526;-68
2021/03/25 05:18:25;;;;;;;28.77;15.47;;;-1.70;99.90;-3.30;97231.00;;;;5090227;28;20465;-67
2021/03/25 05:21:18;;;;;;;21.90;12.97;;;-1.70;99.90;-3.30;97226.00;;;;5096721;28;20822;-66
2021/03/25 05:24:18;;;;;;;25.77;13.63;;;-1.80;99.90;-3.30;97224.00;;;;5085230;28;20496;-67
2021/03/25 05:27:16;;;;;;;26.57;14.80;;;-1.80;99.90;-3.00;97222.00;;;;5084546;28;20464;-67
2021/03/25 05:30:10;;;;;;;35.53;14.97;;;-1.80;99.90;-2.90;97226.00;;;;5084853;28;20440;-66
2021/03/25 05:33:03;;;;;;;26.20;14.20;;;-1.70;99.90;-2.90;97229.00;;;;5103778;28;20424;-67
2021/03/25 05:35:56;;;;;;;30.57;15.27;;;-1.60;99.90;-3.10;97227.00;;;;5103469;28;20421;-67
2021/03/25 05:38:44;;;;;;;22.20;15.43;;;-1.60;99.90;-3.10;97226.00;;;;5096171;28;20460;-67
2021/03/25 05:41:41;;;;;;;30.30;16.37;;;-1.60;99.90;-2.90;97219.00;;;;5100852;28;20802;-67
2021/03/25 05:45:25;;;;;;;26.30;14.77;;;-1.60;99.90;-2.90;97223.00;;;;5101836;28;20848;-67
2021/03/25 05:49:07;;;;;;;26.87;14.67;;;-1.50;99.90;-2.80;97231.00;;;;5098222;28;20459;-67
2021/03/25 05:52:18;;;;;;;27.83;16.10;;;-1.50;99.90;-2.70;97231.00;;;;5056892;28;21220;-67
2021/03/25 05:55:30;;;;;;;24.63;13.27;;;-1.40;99.90;-2.70;97225.00;;;;5088545;28;20835;-67
2021/03/25 05:58:34;;;;;;;24.40;13.87;;;-1.40;99.90;-2.60;97227.00;;;;5090007;28;20464;-67
2021/03/25 06:01:44;;;;;;;25.20;15.20;;;-1.30;99.90;-2.80;97223.00;;;;5098002;28;20502;-67
2021/03/25 06:04:35;;;;;;;23.90;15.70;;;-1.30;99.90;-2.70;97222.00;;;;5103102;28;20843;-66
2021/03/25 06:07:54;;;;;;;25.90;15.17;;;-1.30;99.90;-2.40;97221.00;;;;5101138;28;20989;-67
2021/03/25 06:11:02;;;;;;;26.23;16.10;;;-1.20;99.90;-2.40;97221.00;;;;5102334;28;20424;-67
2021/03/25 06:14:08;;;;;;;23.53;14.07;;;-1.10;99.90;-2.50;97221.00;;;;5097317;28;20437;-68
2021/03/25 06:17:16;;;;;;;22.43;15.60;;;-1.10;99.90;-2.40;97214.00;;;;5099284;28;20455;-68
2021/03/25 06:20:26;;;;;;;26.53;15.17;;;-1.10;99.90;-2.30;97223.00;;;;5092184;28;20440;-67
2021/03/25 06:23:38;;;;;;;25.93;14.23;;;-1.00;99.90;-2.10;97225.00;;;;5102128;28;20443;-68
2021/03/25 06:26:38;;;;;;;26.63;15.77;;;-0.90;99.90;-1.90;97223.00;;;;5087486;28;20433;-68
2021/03/25 06:29:31;;;;;;;26.87;16.27;;;-0.80;99.90;-1.70;97223.00;;;;5106311;28;20444;-68
2021/03/25 06:32:27;;;;;;;31.57;16.77;;;-0.60;99.90;-1.40;97234.00;;;;5092259;28;20473;-68
2021/03/25 06:35:23;;;;;;;29.70;15.77;;;-0.50;99.90;-1.20;97236.00;;;;5097454;27;20493;-68
2021/03/25 06:38:19;;;;;;;24.13;15.83;;;-0.30;99.90;-0.90;97239.00;;;;5100770;28;20445;-68
2021/03/25 06:41:18;;;;;;;22.03;14.40;;;-0.10;99.90;-0.80;97243.00;;;;5105278;28;20437;-68
2021/03/25 06:44:16;;;;;;;25.60;14.17;;;0.10;99.90;-0.70;97242.00;;;;5096905;28;20841;-68
2021/03/25 06:47:16;;;;;;;22.37;13.50;;;0.30;99.90;-0.70;97235.00;;;;5100600;28;20865;-68
2021/03/25 06:50:07;;;;;;;22.93;14.20;;;0.40;99.90;-0.80;97233.00;;;;5101010;28;20448;-68
2021/03/25 06:53:08;;;;;;;26.87;14.73;;;0.50;99.90;-0.80;97240.00;;;;5101279;28;20465;-68
2021/03/25 06:55:59;;;;;;;37.80;15.67;;;0.50;99.90;-0.70;97242.00;;;;5100233;28;20447;-68
2021/03/25 06:58:53;;;;;;;32.20;16.10;;;0.50;99.90;-0.40;97242.00;;;;5094313;28;20449;-68
2021/03/25 07:01:45;;;;;;;25.13;15.47;;;0.60;99.90;-0.30;97248.00;;;;5099259;28;20421;-68
2021/03/25 07:04:40;;;;;;;22.73;15.07;;;0.80;99.90;0.10;97257.00;;;;5089637;28;20438;-68
2021/03/25 07:07:35;;;;;;;26.00;15.37;;;0.90;99.90;0.30;97253.00;;;;5089079;28;20461;-68
2021/03/25 07:10:24;;;;;;;23.27;14.23;;;1.10;99.90;0.60;97247.00;;;;5093147;28;20464;-68
2021/03/25 07:13:19;;;;;;;26.23;14.43;;;1.40;99.90;0.70;97243.00;;;;5099357;28;20467;-68
2021/03/25 07:16:13;;;;;;;29.03;15.27;;;1.60;99.90;0.90;97242.00;;;;5099275;28;20440;-68
2021/03/25 07:19:06;;;;;;;22.60;13.10;;;1.70;99.90;1.00;97242.00;;;;5093722;28;20456;-68
2021/03/25 07:22:19;;;;;;;22.13;14.53;;;1.90;99.90;1.20;97259.00;;;;5094543;28;20443;-68
2021/03/25 07:25:18;;;;;;;31.27;14.50;;;2.10;99.90;1.40;97243.00;;;;5097994;28;20452;-68
2021/03/25 07:28:14;;;;;;;24.80;15.70;;;2.30;99.90;1.70;97245.00;;;;5084558;28;20973;-68
2021/03/25 07:31:02;;;;;;;21.90;12.23;;;2.50;99.90;1.90;97256.00;;;;5096250;28;20757;-69
2021/03/25 07:33:50;;;;;;;22.17;13.73;;;2.70;99.90;2.00;97245.00;;;;5091186;28;20444;-69
2021/03/25 07:36:51;;;;;;;21.13;13.00;;;2.80;99.90;2.10;97246.00;;;;5097925;28;20426;-69
2021/03/25 07:39:48;;;;;;;26.13;14.00;;;3.00;99.90;2.00;97241.00;;;;5084754;28;20440;-69
2021/03/25 07:42:38;;;;;;;22.40;13.90;;;3.10;99.90;2.30;97245.00;;;;5086841;28;20433;-69
2021/03/25 07:45:31;;;;;;;19.27;12.63;;;3.20;99.90;2.50;97240.00;;;;5085472;28;20436;-68
2021/03/25 07:48:23;;;;;;;24.87;14.17;;;3.40;99.90;3.00;97262.00;;;;5089509;28;20461;-69
2021/03/25 07:51:13;;;;;;;26.80;16.77;;;3.60;99.90;3.30;97239.00;;;;5086145;28;20835;-69
2021/03/25 07:54:26;;;;;;;19.73;14.57;;;3.80;99.90;3.70;97257.00;;;;5087578;28;20739;-69
2021/03/25 07:57:16;;;;;;;29.23;16.33;;;4.20;99.90;3.90;97262.00;;;;5097870;28;20436;-69
2021/03/25 08:00:17;;;;;;;29.60;15.93;;;3.90;99.90;4.40;97259.00;;;;5086447;28;20430;-69
2021/03/25 08:03:17;;;;;;;23.13;14.40;;;4.70;99.90;4.70;97276.00;;;;5085787;28;20448;-69
2021/03/25 08:06:19;;;;;;;21.63;13.23;;;5.00;99.90;5.00;97274.00;;;;5092392;28;20526;-69
2021/03/25 08:09:10;;;;;;;22.17;13.53;;;5.40;99.90;5.20;97268.00;;;;5094278;28;20452;-68
2021/03/25 08:12:02;;;;;;;24.10;13.57;;;5.60;99.90;5.40;97262.00;;;;5086563;27;20250;-67
2021/03/25 08:14:54;;;;;;;21.40;12.93;;;5.90;99.90;5.60;97265.00;;;;5095548;28;20708;-67
2021/03/25 08:17:49;;;;;;;23.17;14.00;;;6.20;99.90;5.90;97264.00;;;;5088514;28;20698;-67
2021/03/25 08:20:47;;;;;;;22.23;13.40;;;6.40;99.90;6.10;97272.00;;;;5087482;28;20582;-67
2021/03/25 08:24:12;;;;;;;26.27;12.83;;;6.60;99.90;6.30;97277.00;;;;5084374;28;20672;-67
2021/03/25 08:27:28;;;;;;;23.47;11.90;;;6.80;99.90;6.50;97262.00;;;;5088266;28;20206;-67
2021/03/25 08:30:51;;;;;;;23.27;13.20;;;7.00;99.90;6.70;97267.00;;;;5098478;28;20190;-67
2021/03/25 08:33:56;;;;;;;21.83;13.37;;;7.20;99.90;7.00;97266.00;;;;5102561;28;20226;-67
2021/03/25 08:37:11;;;;;;;24.07;12.23;;;7.50;99.90;7.00;97266.00;;;;5099568;28;20708;-68
2021/03/25 08:40:03;;;;;;;20.13;12.53;;;7.80;99.90;7.00;97265.00;;;;5094546;28;20208;-68
2021/03/25 08:42:56;;;;;;;21.90;13.50;;;7.80;99.90;7.30;97264.00;;;;5101150;28;20202;-67
2021/03/25 08:45:52;;;;;;;23.67;13.57;;;7.90;99.90;7.50;97265.00;;;;5101352;28;20202;-67
2021/03/25 08:48:48;;;;;;;23.97;14.53;;;8.10;99.90;7.70;97263.00;;;;5102247;28;20234;-67
2021/03/25 08:51:41;;;;;;;22.77;13.73;;;8.30;99.90;7.80;97258.00;;;;5084724;28;20218;-67
2021/03/25 08:54:35;;;;;;;22.27;13.67;;;8.40;99.60;8.20;97255.00;;;;5095046;28;20678;-68
2021/03/25 08:57:28;;;;;;;26.20;13.27;;;8.60;99.40;8.30;97256.00;;;;5096070;28;20229;-68
2021/03/25 09:00:22;;;;;;;19.63;13.70;;;8.70;98.70;8.50;97252.00;;;;5095161;28;20321;-68
2021/03/25 09:03:20;;;;;;;20.83;11.87;;;8.90;97.00;8.50;97248.00;;;;5096741;28;20666;-67
2021/03/25 09:06:14;;;;;;;19.10;13.23;;;9.10;95.30;8.50;97245.00;;;;5085151;28;20325;-68
2021/03/25 09:09:29;;;;;;;21.97;14.17;;;9.30;92.40;8.90;97240.00;;;;5100168;28;20233;-68
2021/03/25 09:12:22;;;;;;;19.87;12.63;;;9.40;92.80;9.20;97236.00;;;;5101991;28;20210;-68
2021/03/25 09:15:11;;;;;;;19.63;13.30;;;9.50;92.80;9.40;97235.00;;;;5106482;28;20202;-68
2021/03/25 09:18:09;;;;;;;20.87;14.07;;;9.70;91.70;9.60;97235.00;;;;5104245;28;20222;-68
2021/03/25 09:21:13;;;;;;;17.57;12.20;;;9.90;90.90;9.80;97248.00;;;;5102196;28;20244;-68
2021/03/25 09:24:09;;;;;;;22.47;14.23;;;10.10;89.20;9.70;97240.00;;;;5103238;28;20198;-68
2021/03/25 09:27:07;;;;;;;29.77;16.93;;;10.30;85.60;9.90;97231.00;;;;5105124;28;20629;-68
2021/03/25 09:30:29;;;;;;;23.67;16.60;;;10.40;85.60;10.30;97229.00;;;;5105736;28;20204;-69
2021/03/25 09:33:42;;;;;;;29.30;17.10;;;10.60;85.70;10.70;97232.00;;;;5101267;28;20218;-69
2021/03/25 09:36:55;;;;;;;22.30;15.07;;;10.80;85.60;10.60;97232.00;;;;5106962;28;20220;-69
2021/03/25 09:39:43;;;;;;;34.53;19.47;;;11.10;82.30;10.70;97217.00;;;;5104464;28;20216;-68
2021/03/25 09:42:31;;;;;;;29.63;16.63;;;11.20;79.80;11.10;97223.00;;;;5097876;28;20673;-68
2021/03/25 09:45:35;;;;;;;46.07;20.00;;;11.40;80.50;11.40;97209.00;;;;5103021;28;20203;-69
2021/03/25 09:48:28;;;;;;;28.90;16.90;;;11.60;78.80;11.50;97213.00;;;;5105211;28;20218;-69
2021/03/25 09:51:20;;;;;;;35.03;19.37;;;11.80;76.70;11.70;97212.00;;;;5088727;28;20244;-69
2021/03/25 09:54:23;;;;;;;31.07;14.83;;;12.00;76.90;11.60;97216.00;;;;5087806;28;20199;-70
2021/03/25 09:57:25;;;;;;;19.13;12.83;;;12.10;73.90;11.90;97213.00;;;;5087795;28;20214;-69
2021/03/25 10:00:47;;;;;;;26.57;15.97;;;12.30;72.70;11.80;97198.00;;;;5097969;28;20211;-69
2021/03/25 10:04:18;;;;;;;22.53;13.93;;;12.40;70.80;11.90;97201.00;;;;5088101;28;20213;-69
2021/03/25 10:07:37;;;;;;;19.80;12.07;;;12.60;70.30;11.70;97190.00;;;;5086628;28;20199;-69
2021/03/25 10:10:38;;;;;;;24.20;14.10;;;12.60;67.40;12.20;97199.00;;;;5097087;28;20467;-69
2021/03/25 10:13:40;;;;;;;24.80;15.00;;;12.60;67.20;12.60;97196.00;;;;5096539;28;20222;-69
2021/03/25 10:16:49;;;;;;;16.90;11.03;;;11.70;65.50;12.30;97193.00;;;;5104182;28;20202;-69
2021/03/25 10:19:45;;;;;;;17.47;11.67;;;13.00;65.60;13.10;97187.00;;;;5103050;28;20203;-69
2021/03/25 10:22:32;;;;;;;16.13;11.93;;;13.10;66.50;13.50;97188.00;;;;5102813;28;20214;-68
2021/03/25 10:25:26;;;;;;;17.10;11.20;;;13.40;66.30;13.80;97176.00;;;;5104666;28;20198;-68
2021/03/25 10:28:15;;;;;;;16.10;11.57;;;13.70;64.30;13.90;97178.00;;;;5103560;28;20233;-69
2021/03/25 10:31:07;;;;;;;19.23;11.23;;;13.90;64.10;14.20;97172.00;;;;5102790;28;20199;-69
2021/03/25 10:34:02;;;;;;;17.03;11.03;;;14.20;64.20;14.40;97172.00;;;;5100851;28;20602;-69
2021/03/25 10:36:55;;;;;;;19.30;11.63;;;14.40;62.20;14.50;97168.00;;;;5105093;28;20198;-70
2021/03/25 10:39:46;;;;;;;13.83;9.60;;;14.70;62.00;14.00;97166.00;;;;5106631;28;20207;-69
2021/03/25 10:43:10;;;;;;;12.90;9.47;;;14.70;58.60;14.50;97158.00;;;;5106703;28;20202;-69
2021/03/25 10:46:03;;;;;;;18.83;11.33;;;14.80;59.40;14.90;97162.00;;;;5103756;28;20205;-69
2021/03/25 10:49:00;;;;;;;16.97;10.80;;;15.00;59.80;15.10;97146.00;;;;5101659;28;20233;-69
2021/03/25 10:51:50;;;;;;;17.57;9.57;;;15.20;58.10;15.50;97151.00;;;;5099999;28;20219;-69
2021/03/25 10:54:39;;;;;;;12.70;8.73;;;15.40;57.70;16.00;97149.00;;;;5082096;28;20231;-69
2021/03/25 10:57:29;;;;;;;14.80;9.03;;;15.80;57.70;16.40;97144.00;;;;5083246;28;20234;-69
2021/03/25 11:00:22;;;;;;;23.43;14.07;;;16.10;57.70;16.90;97153.00;;;;5082576;28;20207;-68
2021/03/25 11:03:28;;;;;;;36.53;26.50;;;16.50;57.20;16.90;97143.00;;;;5091851;28;20214;-68
2021/03/25 11:06:25;;;;;;;15.27;12.03;;;16.90;54.70;17.20;97129.00;;;;5093478;28;20244;-68
2021/03/25 11:09:21;;;;;;;13.67;9.30;;;17.20;55.10;17.60;97133.00;;;;5093038;28;20222;-68
2021/03/25 11:12:27;;;;;;;16.27;9.60;;;17.50;54.30;17.50;97124.00;;;;5091248;28;20237;-69
2021/03/25 11:15:24;;;;;;;12.97;9.33;;;17.80;52.20;18.10;97129.00;;;;5086835;28;20199;-69
2021/03/25 11:18:21;;;;;;;10.53;7.57;;;18.10;52.80;17.80;97122.00;;;;5089119;28;20239;-69
2021/03/25 11:21:09;;;;;;;20.77;12.07;;;18.30;51.10;18.60;97124.00;;;;5092343;28;20573;-69
2021/03/25 11:24:07;;;;;;;13.07;9.30;;;18.50;51.50;19.00;97115.00;;;;5092503;28;20208;-69
2021/03/25 11:26:56;;;;;;;8.67;6.10;;;18.80;51.50;18.90;97099.00;;;;5085495;28;20199;-69
2021/03/25 11:29:47;;;;;;;17.83;12.03;;;19.10;50.30;19.20;97104.00;;;;5085095;28;20207;-69
2021/03/25 11:32:38;;;;;;;13.07;9.57;;;19.30;49.20;19.70;97100.00;;;;5085262;28;20234;-70
2021/03/25 11:35:39;;;;;;;19.27;9.27;;;19.50;49.00;19.80;97100.00;;;;5082236;28;20231;-69
2021/03/25 11:38:38;;;;;;;14.77;8.90;;;19.60;49.00;19.70;97101.00;;;;5103440;27;20220;-70
2021/03/25 11:41:35;;;;;;;12.63;8.37;;;19.90;47.80;20.00;97094.00;;;;5100532;28;20206;-69
2021/03/25 11:44:43;;;;;;;10.60;7.57;;;20.10;48.10;19.90;97090.00;;;;5108317;27;20250;-70
2021/03/25 11:47:44;;;;;;;8.63;7.13;;;20.30;47.30;18.50;97081.00;;;;5108140;27;20235;-69
2021/03/25 11:50:38;;;;;;;10.20;7.80;;;20.00;46.30;19.80;97071.00;;;;5093500;27;20223;-69
2021/03/25 11:53:36;;;;;;;10.57;7.60;;;20.00;47.10;20.10;97080.00;;;;5092390;28;20230;-68
2021/03/25 11:56:31;;;;;;;9.50;7.40;;;20.10;47.40;20.40;97072.00;;;;5093711;28;20196;-69
2021/03/25 11:59:29;;;;;;;8.67;6.97;;;20.20;47.30;20.40;97075.00;;;;5098549;28;20216;-69
2021/03/25 12:02:31;;;;;;;9.77;7.53;;;20.50;46.90;20.70;97070.00;;;;5103544;28;20628;-69
2021/03/25 12:05:38;;;;;;;10.93;9.17;;;20.70;46.20;20.50;97064.00;;;;5091193;28;20239;-69
2021/03/25 12:08:33;;;;;;;10.20;7.60;;;20.80;46.20;21.10;97074.00;;;;5096869;28;20238;-69
2021/03/25 12:11:21;;;;;;;13.67;8.90;;;21.10;46.00;21.60;97060.00;;;;5087881;28;20200;-69
2021/03/25 12:14:10;;;;;;;9.57;7.33;;;21.20;46.50;20.80;97057.00;;;;5089471;28;20848;-69
2021/03/25 12:17:05;;;;;;;11.77;7.80;;;21.30;45.70;21.70;97049.00;;;;5102583;28;20227;-69
2021/03/25 12:20:20;;;;;;;8.90;6.50;;;21.30;47.00;21.20;97050.00;;;;5084104;28;20709;-67
2021/03/25 12:23:17;;;;;;;8.93;6.40;;;21.50;44.90;22.00;97046.00;;;;5085402;28;20290;-68
2021/03/25 12:26:10;;;;;;;17.10;8.57;;;21.60;45.90;21.20;97044.00;;;;5084512;28;20207;-68
2021/03/25 12:29:03;;;;;;;11.77;8.43;;;21.70;44.80;20.90;97037.00;;;;5089585;28;20223;-68
2021/03/25 12:31:51;;;;;;;10.13;8.20;;;21.60;44.30;21.00;97036.00;;;;5092460;28;20200;-69
2021/03/25 12:34:55;;;;;;;9.07;7.30;;;21.60;44.20;21.50;97033.00;;;;5099623;28;20260;-68
2021/03/25 12:37:43;;;;;;;11.00;8.77;;;21.70;45.30;21.70;97030.00;;;;5090292;28;20240;-68
2021/03/25 12:40:33;;;;;;;13.17;8.47;;;21.70;45.40;22.00;97028.00;;;;5096209;28;20212;-69
2021/03/25 12:43:24;;;;;;;11.10;7.43;;;21.80;45.00;22.10;97024.00;;;;5098823;28;20217;-69
2021/03/25 12:46:12;;;;;;;12.03;8.97;;;21.90;45.10;22.10;97024.00;;;;5091513;28;20204;-67
2021/03/25 12:49:01;;;;;;;13.90;8.07;;;22.10;44.90;21.10;97014.00;;;;5093249;28;20212;-68
2021/03/25 12:51:49;;;;;;;11.70;9.03;;;22.20;44.30;19.00;97011.00;;;;5085610;28;20202;-68
2021/03/25 12:54:37;;;;;;;14.63;9.13;;;21.60;43.00;20.60;97017.00;;;;5100211;28;20225;-68